Time;durP1;ratioP1;P1;durP2;ratioP2;P2;SDS_P1;SDS_P2;PMS_P1;PMS_P2;Temp;Humidity;BMP_temperature;BMP_pressure;BME280_temperature;BME280_humidity;BME280_pressure;Samples;Min_cycle;Max_cycle;Signal;HPM_P1;HPM_P2
2021/12/21 00:00:13;;;;;;;4.97;2.50;;;1.10;98.20;;;;;;5090247;28;20024;-68
2021/12/21 00:02:44;;;;;;;5.05;2.38;;;1.10;98.20;;;;;;5089707;28;20020;-68
2021/12/21 00:05:16;;;;;;;6.50;3.00;;;1.10;98.10;;;;;;5090753;28;20055;-68
2021/12/21 00:07:42;;;;;;;4.82;2.38;;;1.00;98.00;;;;;;5091272;28;20020;-68
2021/12/21 00:10:10;;;;;;;3.67;2.47;;;1.00;98.10;;;;;;5091392;28;20546;-67
2021/12/21 00:12:37;;;;;;;4.72;2.50;;;1.00;98.20;;;;;;5086226;28;20031;-68
2021/12/21 00:15:08;;;;;;;4.57;2.47;;;1.00;98.30;;;;;;5077837;28;20016;-67
2021/12/21 00:25:18;;;;;;;4.78;2.63;;;0.90;98.30;;;;;;5073489;28;20039;-68
2021/12/21 00:27:46;;;;;;;4.28;2.58;;;0.90;98.30;;;;;;5077213;28;20054;-68
2021/12/21 00:30:12;;;;;;;5.25;2.70;;;0.90;98.40;;;;;;5075269;28;20028;-68
2021/12/21 00:32:37;;;;;;;5.33;2.70;;;0.90;98.40;;;;;;5076002;28;20024;-68
2021/12/21 00:35:05;;;;;;;5.13;2.70;;;0.90;98.40;;;;;;5078230;28;20066;-68
2021/12/21 00:37:31;;;;;;;4.93;2.45;;;0.90;98.50;;;;;;5073476;28;20035;-67
2021/12/21 00:39:57;;;;;;;3.85;2.63;;;0.90;98.60;;;;;;5076657;28;20038;-68
2021/12/21 00:42:22;;;;;;;5.00;2.60;;;0.80;98.60;;;;;;5073184;28;20529;-68
2021/12/21 00:44:48;;;;;;;5.67;3.10;;;0.80;98.60;;;;;;5077597;28;20024;-67
2021/12/21 00:47:16;;;;;;;4.03;2.47;;;0.80;99.00;;;;;;5073405;28;20377;-68
2021/12/21 00:49:46;;;;;;;5.68;2.95;;;0.80;98.90;;;;;;5076148;28;20139;-67
2021/12/21 00:52:13;;;;;;;6.35;2.97;;;0.80;98.90;;;;;;5075583;28;20043;-67
2021/12/21 00:54:40;;;;;;;4.35;3.10;;;0.70;98.90;;;;;;5075975;28;20099;-67
2021/12/21 00:57:05;;;;;;;5.13;3.13;;;0.70;99.00;;;;;;5076900;28;20377;-68
2021/12/21 00:59:33;;;;;;;5.63;2.63;;;0.70;99.00;;;;;;5072395;28;20047;-68
2021/12/21 01:01:59;;;;;;;5.40;2.90;;;0.70;99.10;;;;;;5077352;28;20028;-68
2021/12/21 01:04:38;;;;;;;4.07;2.63;;;0.70;99.20;;;;;;5073079;28;20040;-68
2021/12/21 01:07:16;;;;;;;4.75;2.67;;;0.60;99.20;;;;;;5073122;28;20016;-68
2021/12/21 01:21:01;;;;;;;5.07;3.10;;;0.50;99.50;;;;;;5077747;28;20646;-68
2021/12/21 01:28:35;;;;;;;7.22;2.78;;;0.50;99.50;;;;;;5076610;28;20574;-68
2021/12/21 01:31:56;;;;;;;6.05;3.17;;;0.50;99.50;;;;;;5071895;28;20366;-68
2021/12/21 01:34:04;;;;;;;5.85;2.97;;;0.50;99.50;;;;;;5063402;28;20062;-68
2021/12/21 01:41:34;;;;;;;7.28;3.15;;;0.50;99.80;;;;;;5073055;28;20382;-67
2021/12/21 01:49:38;;;;;;;6.05;3.03;;;0.40;99.40;;;;;;5072104;28;20015;-68
2021/12/21 01:52:07;;;;;;;3.63;2.65;;;0.40;99.40;;;;;;5076736;28;20603;-68
2021/12/21 01:54:33;;;;;;;5.65;2.78;;;0.40;99.40;;;;;;5072592;28;20546;-68
2021/12/21 01:56:59;;;;;;;3.83;2.65;;;0.40;99.40;;;;;;5071476;28;20040;-68
2021/12/21 01:59:25;;;;;;;5.00;3.07;;;0.40;99.30;;;;;;5074539;28;20119;-67
2021/12/21 02:01:51;;;;;;;6.13;3.13;;;0.40;99.20;;;;;;5072009;28;20074;-68
2021/12/21 02:04:17;;;;;;;4.93;2.70;;;0.40;99.10;;;;;;5075476;28;20495;-68
2021/12/21 02:06:44;;;;;;;4.55;2.90;;;0.40;99.10;;;;;;5075044;28;20717;-68
2021/12/21 02:09:10;;;;;;;5.35;3.10;;;0.40;99.10;;;;;;5073007;28;20035;-68
2021/12/21 02:11:36;;;;;;;4.75;2.83;;;0.40;99.00;;;;;;5073929;28;20115;-68
2021/12/21 02:14:05;;;;;;;4.72;2.63;;;0.40;98.90;;;;;;5068982;28;20046;-68
2021/12/21 02:16:40;;;;;;;4.82;2.83;;;0.40;98.80;;;;;;5074812;28;20412;-68
2021/12/21 02:19:17;;;;;;;4.60;2.95;;;0.40;98.60;;;;;;5068759;28;20024;-68
2021/12/21 02:21:49;;;;;;;;;;;0.40;98.60;;;;;;5073086;28;20612;-68
2021/12/21 02:24:19;;;;;;;5.40;2.88;;;0.40;98.30;;;;;;5073672;28;19915;-68
2021/12/21 02:27:06;;;;;;;4.72;2.67;;;0.40;98.30;;;;;;5071161;28;20412;-68
2021/12/21 02:29:34;;;;;;;4.03;2.50;;;0.40;98.00;;;;;;5074786;28;20055;-68
2021/12/21 02:32:01;;;;;;;5.22;2.97;;;0.40;97.80;;;;;;5070249;28;20032;-67
2021/12/21 02:34:27;;;;;;;6.07;2.80;;;0.40;97.60;;;;;;5075027;28;20091;-68
2021/12/21 02:36:55;;;;;;;4.43;2.97;;;0.40;97.40;;;;;;5069784;28;20119;-68
2021/12/21 02:39:22;;;;;;;3.85;2.50;;;0.40;97.50;;;;;;5076326;28;20500;-68
2021/12/21 02:41:48;;;;;;;4.85;2.65;;;0.40;97.40;;;;;;5072807;28;20423;-68
2021/12/21 02:44:15;;;;;;;5.50;2.53;;;0.40;97.40;;;;;;5076046;28;20028;-68
2021/12/21 02:46:41;;;;;;;;;;;0.40;97.30;;;;;;5075834;28;20013;-68
2021/12/21 02:49:11;;;;;;;2.85;2.00;;;0.40;97.40;;;;;;5071463;28;19947;-68
2021/12/21 02:51:39;;;;;;;4.47;2.40;;;0.40;97.30;;;;;;5075255;28;20149;-68
2021/12/21 02:54:07;;;;;;;3.42;2.30;;;0.30;97.00;;;;;;5070437;28;20012;-68
2021/12/21 02:56:32;;;;;;;3.25;2.13;;;0.40;97.00;;;;;;5069232;28;20039;-67
2021/12/21 02:58:58;;;;;;;4.53;3.13;;;0.30;96.70;;;;;;5075017;28;20031;-67
2021/12/21 03:01:24;;;;;;;3.17;2.30;;;0.30;96.50;;;;;;5069782;28;20039;-68
2021/12/21 03:03:50;;;;;;;3.57;2.40;;;0.30;96.30;;;;;;5074746;28;20079;-68
2021/12/21 03:09:37;;;;;;;3.50;2.22;;;0.30;96.00;;;;;;5072000;28;20020;-67
2021/12/21 03:12:12;;;;;;;3.60;2.35;;;0.30;96.10;;;;;;5072207;28;20108;-68
2021/12/21 03:14:38;;;;;;;3.67;2.58;;;0.30;96.00;;;;;;5069313;28;20558;-68
2021/12/21 03:17:05;;;;;;;3.20;2.38;;;0.30;96.00;;;;;;5072575;28;20039;-68
2021/12/21 03:19:31;;;;;;;3.40;1.98;;;0.20;95.70;;;;;;5069092;28;20032;-68
2021/12/21 03:21:56;;;;;;;3.30;2.23;;;0.30;95.60;;;;;;5072935;28;20074;-68
2021/12/21 03:24:22;;;;;;;4.20;2.10;;;0.20;95.60;;;;;;5069855;28;20016;-68
2021/12/21 03:26:50;;;;;;;4.17;2.10;;;0.20;95.50;;;;;;5072134;28;20123;-67
2021/12/21 03:29:16;;;;;;;3.00;1.92;;;0.30;95.50;;;;;;5068402;28;20027;-68
2021/12/21 03:31:42;;;;;;;2.42;1.90;;;0.20;95.50;;;;;;5074121;28;20138;-68
2021/12/21 03:34:09;;;;;;;3.30;2.17;;;0.30;95.10;;;;;;5070150;28;20078;-68
2021/12/21 03:36:35;;;;;;;2.50;2.10;;;0.30;95.20;;;;;;5071747;28;20052;-67
2021/12/21 03:39:06;;;;;;;5.63;2.05;;;0.30;95.20;;;;;;5069951;28;20500;-68
2021/12/21 03:41:33;;;;;;;5.10;2.08;;;0.30;95.00;;;;;;5073878;28;20085;-68
2021/12/21 03:44:01;;;;;;;3.47;1.85;;;0.30;95.00;;;;;;5070779;28;20069;-68
2021/12/21 03:46:29;;;;;;;2.88;1.88;;;0.20;95.00;;;;;;5074683;28;20095;-68
2021/12/21 03:48:55;;;;;;;2.90;2.10;;;0.20;94.80;;;;;;5072131;28;20047;-68
2021/12/21 03:51:21;;;;;;;4.80;2.00;;;0.20;95.00;;;;;;5075955;28;20024;-68
2021/12/21 03:53:48;;;;;;;3.33;2.13;;;0.20;94.70;;;;;;5074679;28;20024;-68
2021/12/21 03:58:40;;;;;;;2.40;1.87;;;0.20;94.70;;;;;;5078572;28;20024;-68
2021/12/21 04:01:05;;;;;;;2.90;1.70;;;0.20;94.70;;;;;;5072276;28;20020;-68
2021/12/21 04:03:31;;;;;;;2.27;1.77;;;0.20;94.80;;;;;;5076695;28;20254;-67
2021/12/21 04:05:57;;;;;;;4.27;2.83;;;0.10;94.90;;;;;;5070822;28;20028;-68
2021/12/21 04:08:23;;;;;;;3.33;2.67;;;0.20;94.90;;;;;;5077395;28;20032;-68
2021/12/21 04:10:48;;;;;;;3.40;2.20;;;0.10;94.90;;;;;;5071882;28;20031;-68
2021/12/21 04:13:14;;;;;;;1.97;1.67;;;0.10;95.00;;;;;;5077988;28;20039;-68
2021/12/21 04:15:43;;;;;;;4.77;2.27;;;0.10;94.90;;;;;;5077826;28;20028;-67
2021/12/21 04:18:12;;;;;;;4.35;2.40;;;0.10;95.00;;;;;;5073692;28;20032;-68
2021/12/21 04:20:39;;;;;;;3.80;2.22;;;0.10;95.00;;;;;;5076917;28;20028;-68
2021/12/21 04:23:06;;;;;;;4.00;2.65;;;0.00;94.90;;;;;;5073571;28;20481;-68
2021/12/21 04:25:33;;;;;;;;;;;0.00;95.00;;;;;;5077683;28;20031;-68
2021/12/21 04:27:59;;;;;;;2.72;2.30;;;0.00;94.90;;;;;;5073593;28;19912;-68
2021/12/21 04:30:25;;;;;;;2.50;2.07;;;0.10;94.70;;;;;;5076732;28;20084;-67
2021/12/21 04:32:51;;;;;;;5.38;2.25;;;0.00;94.50;;;;;;5074422;28;20028;-68
2021/12/21 04:35:19;;;;;;;3.13;2.00;;;0.00;94.50;;;;;;5077966;28;20012;-68
2021/12/21 04:37:55;;;;;;;2.85;2.20;;;0.00;94.50;;;;;;5076451;28;20031;-68
2021/12/21 04:40:25;;;;;;;3.03;1.88;;;0.00;94.60;;;;;;5074384;28;20043;-68
2021/12/21 04:42:51;;;;;;;2.33;2.00;;;0.00;94.70;;;;;;5072085;28;20511;-69
2021/12/21 04:45:17;;;;;;;8.53;2.57;;;0.00;94.80;;;;;;5074431;28;20036;-68
2021/12/21 04:47:43;;;;;;;5.13;2.10;;;0.00;94.70;;;;;;5075474;28;20028;-67
2021/12/21 04:50:10;;;;;;;3.33;2.00;;;0.00;94.60;;;;;;5071297;28;20032;-68
2021/12/21 04:52:35;;;;;;;3.55;2.60;;;0.00;94.70;;;;;;5077252;28;20106;-68
2021/12/21 04:55:01;;;;;;;3.67;2.53;;;0.00;94.80;;;;;;5072592;28;20035;-67
2021/12/21 04:57:27;;;;;;;2.60;2.20;;;0.00;94.70;;;;;;5074748;28;20031;-68
2021/12/21 04:59:53;;;;;;;3.10;2.53;;;0.00;94.70;;;;;;5070762;28;20080;-68
2021/12/21 05:02:18;;;;;;;2.83;2.20;;;0.00;94.60;;;;;;5075979;28;20374;-68
2021/12/21 05:04:44;;;;;;;3.00;2.00;;;0.00;94.70;;;;;;5075527;28;20027;-68
2021/12/21 05:07:10;;;;;;;6.10;2.50;;;0.00;94.70;;;;;;5071105;28;20110;-68
2021/12/21 05:09:44;;;;;;;2.87;2.37;;;0.00;94.90;;;;;;5076581;28;20024;-68
2021/12/21 05:12:13;;;;;;;4.35;2.58;;;0.00;95.00;;;;;;5070508;28;20393;-68
2021/12/21 05:14:39;;;;;;;2.85;2.20;;;-0.10;94.90;;;;;;5075160;28;20701;-67
2021/12/21 05:17:05;;;;;;;3.88;2.03;;;-0.10;94.90;;;;;;5073197;28;20024;-67
2021/12/21 05:19:32;;;;;;;4.97;2.03;;;-0.10;94.90;;;;;;5076735;28;20393;-67
2021/12/21 05:21:58;;;;;;;3.22;1.95;;;-0.10;94.80;;;;;;5072796;28;20028;-67
2021/12/21 05:24:24;;;;;;;3.23;2.07;;;-0.10;94.80;;;;;;5076379;28;20032;-67
2021/12/21 05:26:49;;;;;;;4.77;2.20;;;-0.10;94.80;;;;;;5069417;28;20028;-68
2021/12/21 05:29:15;;;;;;;3.10;2.07;;;-0.10;94.90;;;;;;5075100;28;20050;-68
2021/12/21 05:31:41;;;;;;;2.63;2.00;;;-0.10;94.80;;;;;;5075658;28;20111;-67
2021/12/21 05:34:07;;;;;;;3.17;2.00;;;-0.10;94.80;;;;;;5072910;28;20578;-68
2021/12/21 05:36:33;;;;;;;2.53;2.20;;;-0.10;94.80;;;;;;5076872;28;20365;-68
2021/12/21 05:39:03;;;;;;;2.80;2.17;;;-0.10;94.80;;;;;;5072464;28;20054;-68
2021/12/21 05:41:45;;;;;;;2.67;2.17;;;-0.10;94.80;;;;;;5071055;28;20752;-68
2021/12/21 05:44:11;;;;;;;6.68;2.50;;;-0.10;94.70;;;;;;5070622;28;20012;-68
2021/12/21 05:46:37;;;;;;;5.35;2.17;;;-0.10;94.70;;;;;;5075678;28;20346;-68
2021/12/21 05:49:03;;;;;;;3.53;2.77;;;-0.10;94.80;;;;;;5072054;28;20022;-68
2021/12/21 05:51:28;;;;;;;4.17;2.10;;;-0.20;94.80;;;;;;5075589;28;20453;-68
2021/12/21 05:53:54;;;;;;;4.90;2.50;;;-0.20;94.90;;;;;;5072493;28;20030;-68
2021/12/21 05:56:20;;;;;;;5.07;2.33;;;-0.20;94.90;;;;;;5076455;28;20032;-68
2021/12/21 05:58:47;;;;;;;3.83;2.07;;;-0.20;94.90;;;;;;5074788;28;20031;-68
2021/12/21 06:01:12;;;;;;;3.08;2.15;;;-0.20;95.00;;;;;;5071578;28;20081;-68
2021/12/21 06:03:38;;;;;;;3.50;2.07;;;-0.20;95.00;;;;;;5075344;28;20028;-68
2021/12/21 06:06:04;;;;;;;8.00;2.60;;;-0.30;94.90;;;;;;5071692;28;20020;-68
2021/12/21 06:08:30;;;;;;;4.23;2.70;;;-0.30;94.90;;;;;;5075849;28;20078;-68
2021/12/21 06:10:56;;;;;;;3.93;2.47;;;-0.30;94.90;;;;;;5071023;28;20022;-67
2021/12/21 06:26:42;;;;;;;4.75;2.20;;;0.10;94.60;;;;;;5075386;28;20028;-67
2021/12/21 06:29:07;;;;;;;3.80;2.28;;;0.10;94.20;;;;;;5071351;28;20112;-68
2021/12/21 06:31:33;;;;;;;3.77;2.23;;;0.10;94.20;;;;;;5074455;28;20028;-68
2021/12/21 06:33:59;;;;;;;9.40;2.60;;;0.10;94.20;;;;;;5071537;28;20032;-68
2021/12/21 06:36:25;;;;;;;4.60;3.37;;;0.10;94.40;;;;;;5074590;28;20028;-68
2021/12/21 06:38:51;;;;;;;4.80;2.23;;;0.10;94.30;;;;;;5070911;28;20035;-68
2021/12/21 06:41:17;;;;;;;4.10;2.75;;;0.00;94.40;;;;;;5074366;28;20027;-68
2021/12/21 06:43:43;;;;;;;6.40;2.43;;;0.00;94.40;;;;;;5075362;28;20031;-68
2021/12/21 06:51:39;;;;;;;5.45;1.92;;;0.00;94.30;;;;;;5073098;28;20030;-68
2021/12/21 06:54:05;;;;;;;3.15;1.90;;;0.10;94.20;;;;;;5070155;28;20043;-68
2021/12/21 06:56:31;;;;;;;4.23;2.10;;;0.00;94.10;;;;;;5074497;28;20085;-68
2021/12/21 06:58:57;;;;;;;4.87;2.47;;;0.10;94.30;;;;;;5071382;28;20416;-68
2021/12/21 07:01:26;;;;;;;6.30;2.73;;;0.20;94.00;;;;;;5074079;28;20039;-68
2021/12/21 07:03:52;;;;;;;2.60;2.40;;;0.20;93.60;;;;;;5069489;28;20023;-68
2021/12/21 07:06:19;;;;;;;5.38;2.33;;;0.30;93.60;;;;;;5074686;28;20020;-67
2021/12/21 07:08:47;;;;;;;;;;;0.30;93.70;;;;;;5075536;28;20028;-68
2021/12/21 07:11:26;;;;;;;4.55;2.92;;;0.80;93.70;;;;;;5067102;28;19911;-68
2021/12/21 07:19:22;;;;;;;5.43;2.28;;;3.70;84.00;;;;;;5066221;28;20032;-69
2021/12/21 07:21:48;;;;;;;2.93;1.97;;;4.50;79.20;;;;;;5073897;28;20035;-69
2021/12/21 07:24:13;;;;;;;4.13;2.30;;;5.10;73.90;;;;;;5076466;28;20107;-69
2021/12/21 07:26:39;;;;;;;3.20;2.00;;;5.70;70.50;;;;;;5074354;28;20890;-69
2021/12/21 07:29:05;;;;;;;3.13;2.00;;;6.10;67.20;;;;;;5076910;28;20415;-69
2021/12/21 07:31:31;;;;;;;2.50;2.20;;;6.30;64.20;;;;;;5073213;28;20094;-69
2021/12/21 07:33:58;;;;;;;3.57;1.90;;;6.40;64.70;;;;;;5076313;28;20716;-69
2021/12/21 07:36:25;;;;;;;3.95;2.08;;;6.50;63.90;;;;;;5074584;28;20040;-69
2021/12/21 07:38:51;;;;;;;3.72;2.13;;;6.50;63.00;;;;;;5076213;28;20536;-69
2021/12/21 07:41:17;;;;;;;4.63;2.50;;;6.40;62.90;;;;;;5077434;28;20103;-69
2021/12/21 07:43:43;;;;;;;2.73;2.27;;;6.30;63.10;;;;;;5074636;28;20024;-69
2021/12/21 07:46:08;;;;;;;4.13;2.40;;;6.10;63.80;;;;;;5077294;28;20385;-69
2021/12/21 07:48:34;;;;;;;4.73;2.73;;;6.00;64.70;;;;;;5075115;28;20224;-69
2021/12/21 07:51:00;;;;;;;4.67;2.33;;;5.90;65.10;;;;;;5078379;28;20016;-69
2021/12/21 07:53:26;;;;;;;4.37;2.53;;;5.80;66.00;;;;;;5074243;28;20293;-69
2021/12/21 07:55:52;;;;;;;3.37;2.10;;;5.70;66.60;;;;;;5075955;28;20111;-68
2021/12/21 07:58:17;;;;;;;2.33;2.07;;;5.50;67.60;;;;;;5078788;28;20044;-69
2021/12/21 08:00:43;;;;;;;1.80;1.70;;;5.40;68.40;;;;;;5071440;28;20097;-69
2021/12/21 08:03:09;;;;;;;2.60;2.10;;;5.30;69.00;;;;;;5077319;28;20028;-69
2021/12/21 08:05:36;;;;;;;2.95;2.13;;;5.30;69.80;;;;;;5073570;28;20020;-69
2021/12/21 08:08:14;;;;;;;3.50;2.20;;;5.30;70.00;;;;;;5077794;28;20486;-69
2021/12/21 08:11:29;;;;;;;3.00;1.83;;;5.20;71.00;;;;;;5074587;28;20106;-69
2021/12/21 08:13:27;;;;;;;3.75;2.42;;;5.20;70.90;;;;;;5067824;28;20071;-69
2021/12/21 08:15:52;;;;;;;6.05;2.50;;;5.70;68.80;;;;;;5077526;28;20047;-70
2021/12/21 08:18:18;;;;;;;4.43;1.90;;;6.20;66.30;;;;;;5079080;28;20058;-69
2021/12/21 08:20:43;;;;;;;3.10;2.00;;;6.90;63.40;;;;;;5074589;28;21449;-70
2021/12/21 08:23:09;;;;;;;3.10;2.30;;;7.60;59.90;;;;;;5075649;28;20030;-70
2021/12/21 08:25:37;;;;;;;5.10;2.27;;;8.50;56.70;;;;;;5076045;28;20529;-70
2021/12/21 08:28:04;;;;;;;2.78;2.20;;;8.90;54.40;;;;;;5076316;28;20106;-69
2021/12/21 08:30:30;;;;;;;3.47;1.98;;;9.10;52.10;;;;;;5073612;28;20779;-70
2021/12/21 08:32:59;;;;;;;4.53;2.43;;;8.80;52.10;;;;;;5077059;28;20123;-70
2021/12/21 08:35:25;;;;;;;4.25;2.20;;;8.70;52.30;;;;;;5072502;28;20109;-69
2021/12/21 08:37:53;;;;;;;3.83;2.20;;;8.30;52.90;;;;;;5077842;28;20025;-69
2021/12/21 08:40:21;;;;;;;2.53;2.10;;;8.90;53.60;;;;;;5078493;28;20024;-70
2021/12/21 08:42:50;;;;;;;4.18;2.10;;;10.70;49.70;;;;;;5072161;28;20081;-70
2021/12/21 08:45:16;;;;;;;2.88;2.15;;;12.20;45.60;;;;;;5077376;28;20020;-70
2021/12/21 08:47:42;;;;;;;4.32;2.72;;;13.40;42.80;;;;;;5072453;28;20210;-70
2021/12/21 08:50:11;;;;;;;4.32;1.95;;;14.40;40.60;;;;;;5076419;28;20466;-70
2021/12/21 08:52:37;;;;;;;3.13;2.33;;;14.80;39.10;;;;;;5070848;28;20095;-70
2021/12/21 08:55:04;;;;;;;;;;;14.90;38.60;;;;;;5077033;28;20035;-71
2021/12/21 08:57:30;;;;;;;2.35;1.80;;;15.00;37.70;;;;;;5073679;28;19997;-70
2021/12/21 08:59:55;;;;;;;2.95;2.08;;;15.10;37.80;;;;;;5072866;28;20770;-71
2021/12/21 09:02:21;;;;;;;3.15;1.90;;;15.20;37.10;;;;;;5076311;28;20094;-70
2021/12/21 09:04:47;;;;;;;3.03;1.92;;;15.20;36.90;;;;;;5075901;28;20012;-71
2021/12/21 09:07:12;;;;;;;1.80;1.70;;;15.10;37.10;;;;;;5072043;28;20985;-70
2021/12/21 09:09:38;;;;;;;3.08;2.10;;;14.80;37.30;;;;;;5075268;28;20036;-70
2021/12/21 09:12:05;;;;;;;2.20;1.73;;;15.00;36.50;;;;;;5072589;28;20124;-71
2021/12/21 09:14:32;;;;;;;2.72;1.80;;;15.30;36.80;;;;;;5077101;28;20028;-70
2021/12/21 09:17:01;;;;;;;3.65;2.60;;;15.60;36.00;;;;;;5072363;28;20545;-70
2021/12/21 09:19:27;;;;;;;5.07;2.53;;;15.80;36.10;;;;;;5074306;28;20188;-71
2021/12/21 09:21:54;;;;;;;2.83;2.13;;;16.00;35.30;;;;;;5075138;28;20031;-70
2021/12/21 09:24:19;;;;;;;2.30;1.98;;;16.30;34.40;;;;;;5074467;28;20028;-70
2021/12/21 09:26:45;;;;;;;3.10;1.98;;;16.40;34.10;;;;;;5075767;28;20069;-70
2021/12/21 09:29:11;;;;;;;2.10;1.90;;;16.50;34.00;;;;;;5072467;28;20036;-71
2021/12/21 09:31:37;;;;;;;2.38;2.17;;;16.50;33.30;;;;;;5076160;28;20587;-71
2021/12/21 09:34:03;;;;;;;2.92;1.90;;;16.20;33.40;;;;;;5070848;28;20094;-71
2021/12/21 09:36:29;;;;;;;4.78;2.05;;;16.00;34.10;;;;;;5075411;28;20114;-71
2021/12/21 09:38:56;;;;;;;2.00;1.55;;;16.50;33.70;;;;;;5071032;28;20529;-71
2021/12/21 09:41:23;;;;;;;2.13;1.63;;;17.10;32.70;;;;;;5074055;28;20016;-70
2021/12/21 09:43:49;;;;;;;1.90;1.75;;;17.30;32.30;;;;;;5076066;28;20028;-70
2021/12/21 09:46:15;;;;;;;1.92;1.65;;;17.40;32.30;;;;;;5070408;28;20280;-71
2021/12/21 09:48:41;;;;;;;1.70;1.60;;;17.70;31.30;;;;;;5075825;28;20042;-71
2021/12/21 09:51:07;;;;;;;2.50;1.60;;;17.40;30.90;;;;;;5069552;28;20024;-70
2021/12/21 09:53:35;;;;;;;1.48;1.38;;;17.90;30.80;;;;;;5071758;28;20024;-71
2021/12/21 09:56:05;;;;;;;1.90;1.40;;;18.30;30.10;;;;;;5071349;28;20032;-70
2021/12/21 09:58:32;;;;;;;3.95;1.83;;;18.30;30.20;;;;;;5076149;28;20532;-71
2021/12/21 10:00:58;;;;;;;1.92;1.58;;;18.10;30.20;;;;;;5069101;28;20496;-71
2021/12/21 10:03:24;;;;;;;2.63;1.90;;;17.90;30.00;;;;;;5074819;28;20031;-69
2021/12/21 10:05:49;;;;;;;1.35;1.25;;;18.20;30.20;;;;;;5071732;28;20315;-69
2021/12/21 10:08:18;;;;;;;2.67;1.50;;;18.40;29.90;;;;;;5070097;28;20032;-69
2021/12/21 10:10:48;;;;;;;1.50;1.40;;;18.30;30.10;;;;;;5068014;28;20428;-69
2021/12/21 10:13:20;;;;;;;1.90;1.35;;;18.40;29.70;;;;;;5073409;28;20020;-68
2021/12/21 10:15:51;;;;;;;1.35;1.00;;;18.30;29.20;;;;;;5069214;28;20028;-68
2021/12/21 10:18:26;;;;;;;1.10;1.05;;;18.40;29.70;;;;;;5072509;28;20508;-69
2021/12/21 10:20:53;;;;;;;1.23;1.13;;;18.40;28.90;;;;;;5073763;28;20559;-69
2021/12/21 10:23:30;;;;;;;2.25;1.50;;;18.40;29.00;;;;;;5074866;28;20031;-70
2021/12/21 10:26:01;;;;;;;1.50;1.10;;;18.40;28.90;;;;;;5074848;28;20075;-70
2021/12/21 10:28:29;;;;;;;1.27;1.10;;;18.00;28.90;;;;;;5070698;28;20062;-71
2021/12/21 10:30:55;;;;;;;0.95;0.95;;;17.70;29.20;;;;;;5074821;28;20537;-70
2021/12/21 10:33:23;;;;;;;1.48;1.30;;;17.20;29.10;;;;;;5074205;28;20028;-70
2021/12/21 10:35:51;;;;;;;1.52;1.38;;;17.30;29.20;;;;;;5072684;28;20098;-71
2021/12/21 10:38:49;;;;;;;0.98;0.88;;;17.40;29.00;;;;;;5074602;28;20081;-69
2021/12/21 10:41:37;;;;;;;1.33;0.90;;;17.20;29.40;;;;;;5073315;28;20043;-70
2021/12/21 10:44:19;;;;;;;1.83;1.63;;;17.00;29.50;;;;;;5074173;28;20563;-70
2021/12/21 10:46:52;;;;;;;1.42;1.08;;;16.60;29.30;;;;;;5070707;28;20455;-70
2021/12/21 10:49:23;;;;;;;0.98;0.98;;;16.40;29.90;;;;;;5074070;28;20008;-69
2021/12/21 10:51:58;;;;;;;3.75;1.08;;;16.40;29.90;;;;;;5070883;28;20024;-69
2021/12/21 10:54:32;;;;;;;1.67;1.27;;;16.30;29.90;;;;;;5074214;28;20385;-69
2021/12/21 10:57:01;;;;;;;1.23;1.13;;;15.90;29.90;;;;;;5074974;28;20058;-69
2021/12/21 10:59:37;;;;;;;1.15;0.93;;;15.50;29.90;;;;;;5070510;28;21081;-69
2021/12/21 11:02:07;;;;;;;1.20;1.08;;;15.20;30.40;;;;;;5073492;28;20601;-69
2021/12/21 11:04:46;;;;;;;1.10;1.00;;;14.50;30.70;;;;;;5070644;28;20812;-69
2021/12/21 11:07:24;;;;;;;1.33;1.10;;;14.20;31.40;;;;;;5074504;28;20481;-69
2021/12/21 11:10:01;;;;;;;1.95;1.13;;;13.70;32.20;;;;;;5070871;28;20024;-68
2021/12/21 11:12:28;;;;;;;1.02;1.00;;;13.00;33.00;;;;;;5069082;28;20024;-69
2021/12/21 11:14:57;;;;;;;1.10;1.10;;;12.60;33.70;;;;;;5075622;28;20768;-68
2021/12/21 11:17:24;;;;;;;1.00;1.00;;;12.10;34.40;;;;;;5073768;28;20024;-68
2021/12/21 11:19:53;;;;;;;1.48;1.25;;;11.80;34.90;;;;;;5073685;28;20034;-68
2021/12/21 11:22:21;;;;;;;1.33;1.10;;;11.60;35.30;;;;;;5068957;28;20029;-68
2021/12/21 11:24:48;;;;;;;1.58;1.23;;;11.30;35.80;;;;;;5075764;28;20020;-68
2021/12/21 11:27:15;;;;;;;3.85;1.23;;;10.80;36.00;;;;;;5069989;28;20031;-68
2021/12/21 11:29:41;;;;;;;1.33;1.15;;;10.70;36.30;;;;;;5071280;28;20161;-68
2021/12/21 11:32:08;;;;;;;1.08;1.00;;;10.50;36.80;;;;;;5070762;28;20031;-68
2021/12/21 11:34:36;;;;;;;2.65;1.55;;;10.20;37.20;;;;;;5075148;28;20366;-68
2021/12/21 11:37:21;;;;;;;5.63;5.13;;;10.20;37.60;;;;;;5070910;28;20454;-68
2021/12/21 11:39:47;;;;;;;1.17;1.10;;;10.00;37.50;;;;;;5072889;28;20036;-68
2021/12/21 11:42:35;;;;;;;2.03;1.23;;;9.90;37.80;;;;;;5068701;28;20055;-68
2021/12/21 11:45:09;;;;;;;;;;;9.50;38.50;;;;;;5070253;28;20108;-68
2021/12/21 11:47:47;;;;;;;1.90;0.90;;;9.30;40.00;;;;;;5073067;28;19962;-68
2021/12/21 11:50:14;;;;;;;1.20;1.00;;;9.20;39.10;;;;;;5066700;28;20066;-68
2021/12/21 11:52:52;;;;;;;2.22;1.30;;;9.30;39.30;;;;;;5073363;28;20107;-68
2021/12/21 11:55:21;;;;;;;1.92;1.10;;;9.30;39.40;;;;;;5070762;28;20024;-67
2021/12/21 11:57:53;;;;;;;1.92;1.30;;;9.10;41.30;;;;;;5072576;28;20028;-67
2021/12/21 12:00:32;;;;;;;2.65;1.40;;;9.10;42.40;;;;;;5066707;28;20506;-67
2021/12/21 12:03:10;;;;;;;1.40;1.30;;;9.10;42.90;;;;;;5069762;28;20154;-67
2021/12/21 12:05:36;;;;;;;3.40;1.38;;;9.10;42.20;;;;;;5069878;28;20078;-67
2021/12/21 12:08:05;;;;;;;2.20;1.30;;;9.20;42.40;;;;;;5073786;28;20016;-68
2021/12/21 12:10:33;;;;;;;9.07;1.65;;;9.30;41.60;;;;;;5071708;28;20009;-68
2021/12/21 12:13:17;;;;;;;0.98;0.95;;;9.40;41.00;;;;;;5076687;28;20466;-67
2021/12/21 12:16:08;;;;;;;1.88;1.13;;;9.20;41.40;;;;;;5070185;28;20488;-67
2021/12/21 12:18:35;;;;;;;1.52;1.10;;;9.00;41.50;;;;;;5067907;28;20636;-68
2021/12/21 12:21:21;;;;;;;1.70;1.05;;;9.00;40.60;;;;;;5075926;28;20031;-66
2021/12/21 12:23:49;;;;;;;2.13;1.38;;;9.00;41.40;;;;;;5071198;28;20108;-67
2021/12/21 12:29:16;;;;;;;1.30;1.20;;;9.70;41.20;;;;;;5053530;28;20443;-68
2021/12/21 12:31:47;;;;;;;3.05;1.42;;;8.40;42.00;;;;;;5043877;28;20235;-68
2021/12/21 12:34:24;;;;;;;1.85;1.40;;;8.30;42.40;;;;;;5038156;28;20029;-68
2021/12/21 12:36:51;;;;;;;3.30;1.42;;;8.30;42.50;;;;;;5038693;28;20025;-68
2021/12/21 12:39:30;;;;;;;1.65;1.48;;;8.40;42.40;;;;;;5033889;28;20044;-68
2021/12/21 12:42:09;;;;;;;2.65;1.45;;;8.30;42.50;;;;;;5054182;28;20025;-68
2021/12/21 12:44:41;;;;;;;2.78;2.15;;;8.30;42.50;;;;;;5034992;28;20079;-68
2021/12/21 12:47:10;;;;;;;2.65;1.30;;;8.20;42.80;;;;;;5035019;28;20070;-69
2021/12/21 12:49:41;;;;;;;1.95;1.75;;;8.10;42.90;;;;;;5034530;28;20037;-69
2021/12/21 12:52:16;;;;;;;2.63;1.42;;;7.80;43.60;;;;;;5039674;28;20071;-68
2021/12/21 12:54:52;;;;;;;1.15;1.10;;;7.60;44.00;;;;;;5031187;28;20032;-67
2021/12/21 12:57:52;;;;;;;2.58;1.40;;;7.50;44.70;;;;;;5042057;28;20031;-68
2021/12/21 13:00:35;;;;;;;1.95;1.02;;;7.30;44.70;;;;;;5027594;28;20040;-69
2021/12/21 13:03:07;;;;;;;1.23;1.10;;;7.30;44.90;;;;;;5035919;28;20032;-68
2021/12/21 13:05:41;;;;;;;1.75;1.30;;;7.20;45.20;;;;;;5037974;28;20555;-69
2021/12/21 13:08:18;;;;;;;1.35;1.20;;;7.20;45.30;;;;;;5032316;28;20040;-69
2021/12/21 13:10:47;;;;;;;1.92;1.40;;;7.10;45.30;;;;;;5016564;28;20030;-68
2021/12/21 13:13:14;;;;;;;2.38;1.40;;;6.90;46.20;;;;;;5015853;28;21110;-68
2021/12/21 13:15:51;;;;;;;1.25;1.10;;;6.80;46.10;;;;;;5015128;28;20075;-68
2021/12/21 13:18:19;;;;;;;2.40;1.50;;;6.80;47.00;;;;;;5019325;28;20352;-68
2021/12/21 13:20:48;;;;;;;1.65;1.10;;;6.80;46.80;;;;;;5019920;28;21510;-68
2021/12/21 13:23:20;;;;;;;2.45;1.40;;;6.80;47.20;;;;;;5012370;28;20059;-68
2021/12/21 13:26:09;;;;;;;1.65;1.45;;;6.80;48.00;;;;;;5015887;28;20025;-68
2021/12/21 13:28:51;;;;;;;1.90;1.55;;;6.70;48.30;;;;;;5014944;28;20058;-68
2021/12/21 13:31:19;;;;;;;3.00;1.48;;;6.60;48.40;;;;;;5017942;28;20112;-68
2021/12/21 13:33:54;;;;;;;2.13;1.30;;;6.50;48.70;;;;;;5016933;28;20064;-68
2021/12/21 13:36:41;;;;;;;7.65;1.60;;;6.30;48.90;;;;;;5017462;28;20280;-68
2021/12/21 13:39:20;;;;;;;4.68;1.40;;;6.20;49.60;;;;;;5011927;28;20112;-68
2021/12/21 13:42:18;;;;;;;1.75;1.10;;;6.10;50.00;;;;;;5009073;28;20601;-68
2021/12/21 13:44:48;;;;;;;2.13;1.70;;;6.00;50.50;;;;;;5003762;28;20136;-68
2021/12/21 13:47:14;;;;;;;3.08;1.38;;;6.00;50.90;;;;;;5000130;28;20038;-68
2021/12/21 13:50:05;;;;;;;3.20;1.53;;;6.00;50.70;;;;;;5008871;28;20601;-68
2021/12/21 13:52:37;;;;;;;1.63;1.40;;;6.00;50.50;;;;;;5007156;28;20015;-68
2021/12/21 13:55:05;;;;;;;3.30;1.35;;;6.00;50.90;;;;;;4999432;28;20050;-68
2021/12/21 13:57:33;;;;;;;3.42;1.67;;;6.00;51.60;;;;;;5003321;28;20022;-68
2021/12/21 14:00:06;;;;;;;1.20;1.10;;;6.10;51.60;;;;;;4999167;28;20751;-68
2021/12/21 14:02:36;;;;;;;1.88;1.40;;;5.90;51.30;;;;;;5002515;28;20030;-68
2021/12/21 14:05:08;;;;;;;3.65;1.25;;;5.80;51.60;;;;;;5001460;28;20029;-68
2021/12/21 14:07:38;;;;;;;6.13;1.70;;;5.60;52.50;;;;;;5003079;28;20824;-68
2021/12/21 14:10:09;;;;;;;3.13;1.27;;;5.60;52.60;;;;;;4998513;28;20017;-68
2021/12/21 14:12:34;;;;;;;1.35;1.25;;;5.50;52.90;;;;;;5003183;28;20044;-68